createdAt,value
2022-11-20T00:00:48.108Z,9.87
2022-11-20T00:03:38.025Z,9.84
2022-11-20T00:06:29.454Z,9.77
2022-11-20T00:09:20.587Z,9.86
2022-11-20T00:12:10.063Z,9.74
2022-11-20T00:14:59.340Z,9.79
2022-11-20T00:17:49.141Z,9.71
2022-11-20T00:20:38.768Z,9.81
2022-11-20T00:23:28.052Z,9.85
2022-11-20T00:26:21.586Z,9.62
2022-11-20T00:29:12.065Z,9.70
2022-11-20T00:32:01.377Z,9.68
2022-11-20T00:34:50.868Z,9.69
2022-11-20T00:37:40.255Z,9.62
2022-11-20T00:40:29.685Z,9.62
2022-11-20T00:43:20.354Z,9.60
2022-11-20T00:46:12.049Z,9.50
2022-11-20T00:49:01.772Z,9.50
2022-11-20T00:51:51.067Z,9.43
2022-11-20T00:54:40.449Z,9.47
2022-11-20T00:57:29.691Z,9.48
2022-11-20T01:00:20.864Z,9.49
2022-11-20T01:03:10.263Z,9.50
2022-11-20T01:06:03.563Z,9.48
2022-11-20T01:08:55.593Z,9.49
2022-11-20T01:11:46.974Z,9.47
2022-11-20T01:14:36.275Z,9.49
2022-11-20T01:17:27.111Z,9.46
2022-11-20T01:20:16.785Z,9.47
2022-11-20T01:23:06.297Z,9.49
2022-11-20T01:25:55.627Z,9.48
2022-11-20T01:28:45.708Z,9.48
2022-11-20T01:31:37.749Z,9.38
2022-11-20T01:34:28.462Z,9.52
2022-11-20T01:37:17.988Z,9.48
2022-11-20T01:40:08.724Z,9.41
2022-11-20T01:43:22.342Z,9.39
2022-11-20T01:46:17.745Z,9.33
2022-11-20T01:49:14.016Z,9.34
2022-11-20T01:52:09.744Z,9.34
2022-11-20T01:55:06.289Z,9.30
2022-11-20T01:57:55.849Z,9.22
2022-11-20T02:00:45.905Z,9.27
2022-11-20T02:03:35.435Z,9.25
2022-11-20T02:06:30.403Z,9.27
2022-11-20T02:09:21.426Z,9.23
2022-11-20T02:12:31.282Z,9.11
2022-11-20T02:15:19.708Z,9.32
2022-11-20T02:18:10.405Z,9.28
2022-11-20T02:21:08.075Z,9.29
2022-11-20T02:24:09.128Z,9.29
2022-11-20T02:27:04.419Z,9.33
2022-11-20T02:29:57.480Z,9.37
2022-11-20T02:32:47.086Z,9.35
2022-11-20T02:35:48.647Z,9.37
2022-11-20T02:38:38.151Z,9.37
2022-11-20T02:41:39.513Z,9.39
2022-11-20T02:44:28.769Z,9.22
2022-11-20T02:47:18.171Z,9.25
2022-11-20T02:50:08.487Z,9.29
2022-11-20T02:52:57.776Z,9.27
2022-11-20T02:55:47.060Z,9.20
2022-11-20T02:58:37.787Z,9.17
2022-11-20T03:01:27.249Z,9.00
2022-11-20T03:04:16.731Z,8.98
2022-11-20T03:07:06.321Z,8.92
2022-11-20T03:09:55.642Z,8.84
2022-11-20T03:12:44.900Z,8.79
2022-11-20T03:15:35.675Z,8.67
2022-11-20T03:18:24.998Z,8.58
2022-11-20T03:21:15.845Z,8.61
2022-11-20T03:24:05.936Z,8.67
2022-11-20T03:26:55.233Z,8.60
2022-11-20T03:29:44.566Z,8.64
2022-11-20T03:32:35.490Z,8.67
2022-11-20T03:35:24.860Z,8.60
2022-11-20T03:38:14.116Z,8.66
2022-11-20T03:41:05.396Z,8.62
2022-11-20T03:43:56.935Z,8.69
2022-11-20T03:46:46.206Z,8.67
2022-11-20T03:49:37.002Z,8.68
2022-11-20T03:52:26.365Z,8.67
2022-11-20T03:55:15.891Z,8.70
2022-11-20T03:58:05.217Z,8.69
2022-11-20T04:00:54.405Z,8.64
2022-11-20T04:03:45.247Z,8.71
2022-11-20T04:06:40.133Z,8.71
2022-11-20T04:09:29.583Z,8.72
2022-11-20T04:12:18.813Z,8.75
2022-11-20T04:15:09.099Z,8.75
2022-11-20T04:17:58.360Z,8.81
2022-11-20T04:20:47.682Z,8.81
2022-11-20T04:23:38.601Z,8.75
2022-11-20T04:26:29.793Z,8.80
2022-11-20T04:29:19.580Z,8.70
2022-11-20T04:32:09.032Z,8.76
2022-11-20T04:34:58.628Z,8.74
2022-11-20T04:37:48.383Z,8.78
2022-11-20T04:40:39.277Z,8.80
2022-11-20T04:43:29.762Z,8.78
2022-11-20T04:46:20.081Z,8.71
2022-11-20T04:49:10.639Z,8.69
2022-11-20T04:52:00.375Z,8.66
2022-11-20T04:54:49.635Z,8.71
2022-11-20T04:57:40.307Z,8.51
2022-11-20T05:00:29.635Z,8.59
2022-11-20T05:03:19.006Z,8.54
2022-11-20T05:06:10.252Z,8.52
2022-11-20T05:08:59.572Z,8.47
2022-11-20T05:11:51.452Z,8.56
2022-11-20T05:14:42.458Z,8.56
2022-11-20T05:17:31.762Z,8.56
2022-11-20T05:20:22.057Z,8.51
2022-11-20T05:23:11.309Z,8.53
2022-11-20T05:26:01.575Z,8.44
2022-11-20T05:28:50.985Z,8.48
2022-11-20T05:31:42.979Z,8.48
2022-11-20T05:34:32.289Z,8.43
2022-11-20T05:37:21.681Z,8.43
2022-11-20T05:40:13.477Z,8.41
2022-11-20T05:43:03.128Z,8.45
2022-11-20T05:45:56.495Z,8.47
2022-11-20T05:48:48.387Z,8.44
2022-11-20T05:51:37.604Z,8.39
2022-11-20T05:54:27.409Z,8.29
2022-11-20T05:57:16.792Z,8.33
2022-11-20T06:00:07.434Z,8.31
2022-11-20T06:02:56.896Z,8.29
2022-11-20T06:05:47.742Z,8.25
2022-11-20T06:08:37.573Z,8.25
2022-11-20T06:11:27.662Z,8.20
2022-11-20T06:14:17.104Z,8.21
2022-11-20T06:17:06.515Z,8.25
2022-11-20T06:19:56.045Z,8.26
2022-11-20T06:22:46.832Z,8.30
2022-11-20T06:25:39.124Z,8.26
2022-11-20T06:28:28.449Z,8.32
2022-11-20T06:31:20.246Z,8.28
2022-11-20T06:34:10.574Z,8.32
2022-11-20T06:36:59.907Z,8.32
2022-11-20T06:39:50.558Z,8.22
2022-11-20T06:42:39.824Z,8.32
2022-11-20T06:45:29.304Z,8.33
2022-11-20T06:48:18.932Z,8.32
2022-11-20T06:51:09.770Z,8.30
2022-11-20T06:53:59.055Z,8.37
2022-11-20T06:56:51.140Z,8.38
2022-11-20T06:59:40.559Z,8.40
2022-11-20T07:02:29.830Z,8.41
2022-11-20T07:05:19.527Z,8.40
2022-11-20T07:08:09.654Z,8.41
2022-11-20T07:11:01.109Z,8.38
2022-11-20T07:13:52.136Z,8.39
2022-11-20T07:16:41.501Z,8.32
2022-11-20T07:19:30.774Z,8.48
2022-11-20T07:22:22.686Z,8.44
2022-11-20T07:25:13.532Z,8.46
2022-11-20T07:28:03.235Z,8.44
2022-11-20T07:30:55.264Z,8.51
2022-11-20T07:33:45.142Z,8.52
2022-11-20T07:36:34.474Z,8.60
2022-11-20T07:39:23.835Z,8.62
2022-11-20T07:42:13.997Z,8.62
2022-11-20T07:45:03.312Z,8.61
2022-11-20T07:47:54.452Z,8.68
2022-11-20T07:50:43.855Z,8.69
2022-11-20T07:53:33.152Z,8.73
2022-11-20T07:56:22.664Z,8.83
2022-11-20T07:59:12.894Z,8.83
2022-11-20T08:02:02.171Z,8.89
2022-11-20T08:04:52.930Z,8.85
2022-11-20T08:07:44.099Z,8.92
2022-11-20T08:10:33.484Z,8.93
2022-11-20T08:13:39.837Z,8.95
2022-11-20T08:16:29.126Z,9.06
2022-11-20T08:19:21.009Z,8.96
2022-11-20T08:22:12.061Z,8.99
2022-11-20T08:25:01.535Z,8.94
2022-11-20T08:27:50.776Z,9.00
2022-11-20T08:30:40.417Z,9.03
2022-11-20T08:33:30.202Z,8.89
2022-11-20T08:36:22.720Z,8.97
2022-11-20T08:39:16.413Z,9.10
2022-11-20T08:42:09.675Z,9.13
2022-11-20T08:44:59.239Z,9.20
2022-11-20T08:47:49.004Z,9.25
2022-11-20T08:50:38.522Z,9.23
2022-11-20T08:53:27.925Z,9.28
2022-11-20T08:56:19.388Z,9.19
2022-11-20T08:59:44.056Z,9.21
2022-11-20T09:02:18.072Z,9.22
2022-11-20T09:05:08.612Z,9.22
2022-11-20T09:07:59.320Z,9.28
2022-11-20T09:10:53.169Z,9.19
2022-11-20T09:13:43.829Z,9.08
2022-11-20T09:16:33.146Z,9.10
2022-11-20T09:19:37.745Z,9.11
2022-11-20T09:22:27.120Z,9.08
2022-11-20T09:25:16.830Z,9.09
2022-11-20T09:28:06.350Z,9.08
2022-11-20T09:30:57.034Z,9.13
2022-11-20T09:33:46.291Z,9.10
2022-11-20T09:36:35.600Z,9.15
2022-11-20T09:39:24.973Z,9.16
2022-11-20T09:42:32.942Z,9.19
2022-11-20T09:45:33.911Z,9.12
2022-11-20T09:48:50.811Z,9.23
2022-11-20T09:51:51.232Z,9.26
2022-11-20T09:54:42.806Z,9.30
2022-11-20T09:57:38.631Z,9.29
2022-11-20T10:00:28.953Z,9.31
2022-11-20T10:03:28.966Z,9.32
2022-11-20T10:06:24.306Z,9.32
2022-11-20T10:09:27.968Z,9.32
2022-11-20T10:12:25.323Z,9.44
2022-11-20T10:15:31.594Z,9.46
2022-11-20T10:18:38.596Z,9.61
2022-11-20T10:21:42.363Z,9.55
2022-11-20T10:24:45.743Z,9.53
2022-11-20T10:27:49.194Z,9.56
2022-11-20T10:30:43.834Z,9.49
2022-11-20T10:33:57.094Z,9.66
2022-11-20T10:36:55.208Z,9.55
2022-11-20T10:39:53.005Z,9.56
2022-11-20T10:42:52.013Z,9.51
2022-11-20T10:45:55.258Z,9.49
2022-11-20T10:48:46.554Z,9.49
2022-11-20T10:51:47.799Z,9.55
2022-11-20T10:54:49.796Z,9.49
2022-11-20T10:57:56.836Z,9.61
2022-11-20T11:00:46.177Z,9.51
2022-11-20T11:03:36.029Z,9.64
2022-11-20T11:06:34.309Z,9.52
2022-11-20T11:09:37.917Z,9.43
2022-11-20T11:12:31.104Z,9.67
2022-11-20T11:15:30.434Z,9.58
2022-11-20T11:18:31.259Z,9.85
2022-11-20T11:21:27.156Z,9.87
2022-11-20T11:24:41.728Z,9.89
2022-11-20T11:27:33.261Z,9.84
2022-11-20T11:30:23.489Z,10.34
2022-11-20T11:33:20.497Z,11.00
2022-11-20T11:36:25.717Z,12.04
2022-11-20T11:39:20.987Z,12.47
2022-11-20T11:42:18.899Z,13.13
2022-11-20T11:45:18.271Z,13.24
2022-11-20T11:48:11.833Z,13.48
2022-11-20T11:51:01.142Z,13.37
2022-11-20T11:53:50.467Z,13.20
2022-11-20T11:56:40.059Z,12.49
2022-11-20T11:59:40.783Z,12.08
2022-11-20T12:02:40.618Z,11.98
2022-11-20T12:05:34.502Z,12.11
2022-11-20T12:08:29.608Z,12.11
2022-11-20T12:11:26.479Z,12.19
2022-11-20T12:14:25.026Z,12.07
2022-11-20T12:17:16.511Z,11.88
2022-11-20T12:20:15.477Z,11.80
2022-11-20T12:23:16.687Z,11.75
2022-11-20T12:26:20.447Z,11.74
2022-11-20T12:29:20.843Z,11.96
2022-11-20T12:32:42.311Z,11.93
2022-11-20T12:35:50.996Z,12.06
2022-11-20T12:39:06.329Z,12.27
2022-11-20T12:42:37.646Z,12.25
2022-11-20T12:46:15.889Z,12.43
2022-11-20T12:49:32.088Z,12.61
2022-11-20T12:52:41.437Z,12.51
2022-11-20T12:55:50.461Z,12.54
2022-11-20T12:58:48.890Z,12.44
2022-11-20T13:01:50.716Z,12.66
2022-11-20T13:05:27.172Z,12.60
2022-11-20T13:08:25.155Z,12.77
2022-11-20T13:11:21.124Z,12.79
2022-11-20T13:14:29.030Z,12.83
2022-11-20T13:17:26.986Z,12.75
2022-11-20T13:20:19.306Z,12.49
2022-11-20T13:23:08.588Z,12.09
2022-11-20T13:26:19.865Z,11.78
2022-11-20T13:29:18.622Z,11.40
2022-11-20T13:32:15.991Z,11.30
2022-11-20T13:35:07.106Z,11.14
2022-11-20T13:38:09.144Z,11.07
2022-11-20T13:41:21.141Z,11.09
2022-11-20T13:44:26.206Z,11.05
2022-11-20T13:47:25.072Z,11.03
2022-11-20T13:50:17.433Z,11.00
2022-11-20T13:53:24.931Z,10.97
2022-11-20T13:56:26.721Z,10.87
2022-11-20T13:59:39.289Z,10.84
2022-11-20T14:02:32.003Z,10.98
2022-11-20T14:05:25.454Z,10.96
2022-11-20T14:08:23.648Z,11.11
2022-11-20T14:11:19.533Z,11.06
2022-11-20T14:14:20.686Z,11.12
2022-11-20T14:17:19.143Z,11.07
2022-11-20T14:20:15.233Z,10.96
2022-11-20T14:23:06.212Z,10.91
2022-11-20T14:25:55.840Z,10.87
2022-11-20T14:28:45.153Z,10.83
2022-11-20T14:31:35.923Z,10.75
2022-11-20T14:34:28.255Z,10.73
2022-11-20T14:37:25.041Z,10.70
2022-11-20T14:40:28.466Z,10.64
2022-11-20T14:43:26.114Z,10.62
2022-11-20T14:46:16.668Z,10.53
2022-11-20T14:49:07.699Z,10.51
2022-11-20T14:52:04.687Z,10.43
2022-11-20T14:54:56.328Z,10.56
2022-11-20T14:57:45.644Z,10.46
2022-11-20T15:00:38.200Z,10.44
2022-11-20T15:03:35.165Z,10.41
2022-11-20T15:06:29.012Z,10.44
2022-11-20T15:09:18.582Z,10.42
2022-11-20T15:12:20.622Z,10.38
2022-11-20T15:15:17.128Z,10.23
2022-11-20T15:18:06.881Z,10.28
2022-11-20T15:20:58.834Z,10.31
2022-11-20T15:23:49.813Z,10.21
2022-11-20T15:26:40.314Z,10.21
2022-11-20T15:29:30.214Z,10.14
2022-11-20T15:32:19.537Z,10.00
2022-11-20T15:35:10.783Z,9.97
2022-11-20T15:38:00.072Z,9.85
2022-11-20T15:40:50.911Z,9.72
2022-11-20T15:43:40.273Z,9.83
2022-11-20T15:46:33.934Z,9.77
2022-11-20T15:49:24.735Z,9.76
2022-11-20T15:52:15.368Z,9.76
2022-11-20T15:55:09.829Z,9.68
2022-11-20T15:58:00.733Z,9.63
2022-11-20T16:00:51.201Z,9.61
2022-11-20T16:03:40.864Z,9.62
2022-11-20T16:06:30.323Z,9.55
2022-11-20T16:09:19.705Z,9.50
2022-11-20T16:12:31.150Z,9.50
2022-11-20T16:15:39.228Z,9.46
2022-11-20T16:18:28.653Z,9.42
2022-11-20T16:21:18.047Z,9.34
2022-11-20T16:24:09.430Z,9.27
2022-11-20T16:26:59.122Z,9.14
2022-11-20T16:29:48.518Z,9.19
2022-11-20T16:32:39.766Z,9.16
2022-11-20T16:35:30.145Z,9.18
2022-11-20T16:38:19.513Z,9.16
2022-11-20T16:41:14.556Z,9.06
2022-11-20T16:44:09.497Z,8.95
2022-11-20T16:46:58.889Z,9.11
2022-11-20T16:49:49.628Z,9.07
2022-11-20T16:52:39.314Z,8.89
2022-11-20T16:55:28.684Z,8.96
2022-11-20T16:58:18.488Z,8.97
2022-11-20T17:01:10.807Z,8.91
2022-11-20T17:04:02.227Z,8.90
2022-11-20T17:06:53.064Z,8.86
2022-11-20T17:09:43.051Z,8.83
2022-11-20T17:12:32.306Z,8.82
2022-11-20T17:15:21.573Z,8.89
2022-11-20T17:18:10.913Z,8.87
2022-11-20T17:21:04.662Z,8.83
2022-11-20T17:23:55.396Z,8.84
2022-11-20T17:26:46.409Z,8.91
2022-11-20T17:29:41.791Z,8.87
2022-11-20T17:32:31.455Z,8.85
2022-11-20T17:35:20.829Z,8.84
2022-11-20T17:38:10.292Z,8.88
2022-11-20T17:41:06.451Z,8.89
2022-11-20T17:43:57.733Z,8.91
2022-11-20T17:46:47.052Z,8.90
2022-11-20T17:49:36.376Z,8.84
2022-11-20T17:52:25.682Z,8.86
2022-11-20T17:55:15.219Z,8.84
2022-11-20T17:58:06.672Z,8.79
2022-11-20T18:00:56.103Z,8.85
2022-11-20T18:03:45.615Z,8.85
2022-11-20T18:06:35.269Z,8.86
2022-11-20T18:09:24.825Z,8.77
2022-11-20T18:12:14.126Z,8.84
2022-11-20T18:15:05.323Z,8.87
2022-11-20T18:17:54.814Z,8.79
2022-11-20T18:20:44.108Z,8.83
2022-11-20T18:23:35.606Z,8.74
2022-11-20T18:26:25.926Z,8.73
2022-11-20T18:29:17.605Z,8.69
2022-11-20T18:32:08.383Z,8.71
2022-11-20T18:34:57.732Z,8.73
2022-11-20T18:37:47.048Z,8.80
2022-11-20T18:40:36.987Z,8.77
2022-11-20T18:43:43.798Z,8.76
2022-11-20T18:46:33.028Z,8.67
2022-11-20T18:49:23.697Z,8.64
2022-11-20T18:52:14.233Z,8.61
2022-11-20T18:55:05.098Z,8.55
2022-11-20T18:57:55.390Z,8.58
2022-11-20T19:00:44.745Z,8.60
2022-11-20T19:03:34.227Z,8.56
2022-11-20T19:06:25.729Z,8.55
2022-11-20T19:09:15.350Z,8.55
2022-11-20T19:12:04.812Z,8.62
2022-11-20T19:14:54.120Z,8.61
2022-11-20T19:17:48.907Z,8.56
2022-11-20T19:20:38.355Z,8.60
2022-11-20T19:23:29.093Z,8.66
2022-11-20T19:26:19.269Z,8.67
2022-11-20T19:29:09.047Z,8.66
2022-11-20T19:31:58.937Z,8.68
2022-11-20T19:34:48.185Z,8.70
2022-11-20T19:37:37.468Z,8.72
2022-11-20T19:40:28.156Z,8.76
2022-11-20T19:43:17.657Z,8.67
2022-11-20T19:46:07.283Z,8.74
2022-11-20T19:48:57.541Z,8.78
2022-11-20T19:51:49.270Z,8.78
2022-11-20T19:54:38.622Z,8.85
2022-11-20T19:57:29.687Z,8.76
2022-11-20T20:00:28.096Z,8.85
2022-11-20T20:03:20.522Z,8.88
2022-11-20T20:06:13.904Z,8.84
2022-11-20T20:09:05.989Z,8.83
2022-11-20T20:11:55.529Z,8.79
2022-11-20T20:14:46.320Z,8.71
2022-11-20T20:17:35.937Z,8.63
2022-11-20T20:20:26.019Z,8.58
2022-11-20T20:23:15.590Z,8.54
2022-11-20T20:26:06.423Z,8.56
2022-11-20T20:28:56.362Z,8.48
2022-11-20T20:31:47.724Z,8.44
2022-11-20T20:34:37.544Z,8.41
2022-11-20T20:37:27.288Z,8.35
2022-11-20T20:40:19.080Z,8.27
2022-11-20T20:43:08.347Z,8.20
2022-11-20T20:45:57.859Z,8.16
2022-11-20T20:48:54.040Z,8.05
2022-11-20T20:51:43.954Z,8.08
2022-11-20T20:54:34.643Z,8.11
2022-11-20T20:57:25.443Z,8.15
2022-11-20T21:00:15.769Z,8.18
2022-11-20T21:03:05.124Z,8.28
2022-11-20T21:05:58.811Z,8.34
2022-11-20T21:08:48.293Z,8.35
2022-11-20T21:11:39.779Z,8.38
2022-11-20T21:14:29.285Z,8.37
2022-11-20T21:17:18.670Z,8.36
2022-11-20T21:20:30.211Z,8.38
2022-11-20T21:23:21.359Z,8.43
2022-11-20T21:26:11.482Z,8.49
2022-11-20T21:29:00.890Z,8.55
2022-11-20T21:31:50.696Z,8.64
2022-11-20T21:34:40.096Z,8.68
2022-11-20T21:37:29.828Z,8.74
2022-11-20T21:40:20.738Z,8.79
2022-11-20T21:43:10.147Z,8.79
2022-11-20T21:46:04.427Z,8.85
2022-11-20T21:48:53.987Z,8.82
2022-11-20T21:51:43.468Z,8.85
2022-11-20T21:54:35.808Z,8.80
2022-11-20T21:57:26.797Z,8.79
2022-11-20T22:00:16.996Z,8.74
2022-11-20T22:03:06.494Z,8.67
2022-11-20T22:05:57.609Z,8.61
2022-11-20T22:08:47.170Z,8.55
2022-11-20T22:11:36.582Z,8.57
2022-11-20T22:14:27.539Z,8.58
2022-11-20T22:17:17.540Z,8.45
2022-11-20T22:20:09.091Z,8.57
2022-11-20T22:22:58.444Z,8.52
2022-11-20T22:25:47.821Z,8.55
2022-11-20T22:28:38.371Z,8.55
2022-11-20T22:31:31.410Z,8.57
2022-11-20T22:34:21.357Z,8.62
2022-11-20T22:37:11.011Z,8.61
2022-11-20T22:40:00.594Z,8.67
2022-11-20T22:42:49.976Z,8.72
2022-11-20T22:45:39.249Z,8.73
2022-11-20T22:48:29.949Z,8.78
2022-11-20T22:51:21.552Z,8.76
2022-11-20T22:54:13.367Z,8.87
2022-11-20T22:57:02.868Z,8.97
2022-11-20T22:59:52.138Z,9.07
2022-11-20T23:02:46.695Z,9.11
2022-11-20T23:05:37.309Z,9.19
2022-11-20T23:08:26.699Z,9.19
2022-11-20T23:11:18.695Z,9.23
2022-11-20T23:14:12.762Z,9.25
2022-11-20T23:17:02.097Z,9.33
2022-11-20T23:19:51.443Z,9.40
2022-11-20T23:22:42.188Z,9.50
2022-11-20T23:25:31.522Z,9.58
2022-11-20T23:28:20.744Z,9.73
2022-11-20T23:31:12.707Z,9.85
2022-11-20T23:34:02.409Z,9.95
2022-11-20T23:36:51.986Z,10.01
2022-11-20T23:39:42.789Z,10.10
2022-11-20T23:42:32.171Z,10.17
2022-11-20T23:45:21.475Z,10.23
2022-11-20T23:48:10.834Z,10.24
2022-11-20T23:51:00.495Z,10.24
2022-11-20T23:53:49.815Z,10.22
2022-11-20T23:56:40.543Z,10.26
2022-11-20T23:59:29.809Z,10.34
